Terminal Aerodrome Forecast
Issued by NWS

Home | Current Version | Previous Version | Text Only | Print | Product List | Glossary On
Versions: 1 2 3 4 5 6 7 8 9 10 11 12 13 14 15 16
000
FTUS44 KTSA 311700 RRA
TAFBVO
TAF
KBVO 311740Z 3118/0118 02007KT P6SM BKN015 BKN045 OVC050
     FM312100 12003KT P6SM BKN030
     FM010000 09002KT P6SM FEW250
     FM010900 00000KT 2SM BR SKC
     FM011500 00000KT P6SM SKC=

USA.gov is the U.S. government's official web portal to all federal, state and local government web resources and services.